Libuse, LA (71348)

5:30 PM CDT on March 24, 2017 (GMT -0500)
Tiffany Lane | | Change Station

Elev 125 ft 31.36 °N, 92.35 °W | Updated 28 seconds ago

Partly Cloudy
Partly Cloudy
77.6 °F
Feels Like 79 °F
N
20.0
Wind Variable Wind from East

Today
High -- | Low -- °F
--% Chance of Precip.
Yesterday
High -- | Low -- °F
Precip. -- in
Pressure 30.01 in
Visibility 10.0 miles
Clouds Clear
Heat Index 79 °F
Dew Point 63 °F
Humidity 61%
Rainfall 0.00 in
Snow Depth Not available.
7:07 AM 7:23 PM
Waning Crescent, 12% visible
METAR KESF 242153Z AUTO 16010G18KT 10SM CLR 25/17 A3002 RMK AO2 SLP163 T02500172
Pressure 30.01 in
Visibility 10.0 miles
Clouds Clear
Heat Index 79 °F
Dew Point 63 °F
Humidity 61%
Rainfall 0.00 in
Snow Depth Not available.
7:07 AM 7:23 PM
Waning Crescent, 12% visible
METAR KESF 242153Z AUTO 16010G18KT 10SM CLR 25/17 A3002 RMK AO2 SLP163 T02500172

Get Severe Weather Alerts

Thanks for signing up!

Be on the lookout for a verification email in your inbox.

You'll start receiving the daily forecast at 8 AM.

×

10-Day Weather Forecast

Almanac

Astronomy

Mar. 24, 2017 Rise Set
Actual Time
Civil Twilight
Nautical Twilight
Astronomical Twilight
Moon
Length of Visible Light
Length of Day
Tomorrow will be .
, % of the Moon is Illuminated

Today's Extremes

State Highs State Lows

Community

WunderPhotos

Upload Photos

1,962,540 photos uploaded!

WunderBlog® & News

Nearby

Air Quality

  Air Quality AQ Index Pollutant
Not available.

Snow Depth

Station Depth Elevation

Earthquake Activity

City Distance Mag. Time & Date
Minimum magnitude displayed is 2.5.

Earthquake Activity

City Distance Mag. Time & Date
Minimum magnitude displayed is 2.5.

Coastal Water Temperatures

Place Temperature

Stations

Nearby Weather Stations

Station Location Temp. Windchill Dew Point Humidity Wind Precip. Elev Updated Type
                   

Watches & Warnings

There are currently no watches in effect.